Latest Weather Observations for Broome

IDW60801

Issued at 5:05 am WST Sunday 26 October 2014 (issued every 30 minutes, with the page automatically refreshed every 10 minutes)

About weather observations | Map of weather stations | Latest weather observations for WA | Other Formats
Station Details ID: 003003 Name: BROOME AIRPORT Lat: -17.95 Lon: 122.24 Height: 7.42 m
Data from the previous 72 hours. | See also: Recent months at Broome
Date/Time
WST
Temp
°C
App
Temp
°C
Dew
Point
Rel
Hum
%
Delta-T
°C
Wind Press
QNH
hPa
Press
MSL
hPa
Rain
since 9 am
mm
Dir
 
Spd
km/h
Gust
km/h
Spd
kts
Gust
kts
26/05:00am 25.5 29.6 23.3 88 1.5 SW 7 9 4 5 1011.0 - 0.0
26/04:30am 25.7 29.6 23.0 85 1.8 SW 7 11 4 6 1010.9 - 0.0
26/04:00am 26.1 29.7 23.0 83 2.1 WSW 9 13 5 7 1010.6 - 0.0
26/03:30am 26.4 29.5 22.9 81 2.4 SW 11 15 6 8 1010.7 - 0.0
26/03:00am 26.7 29.8 22.9 79 2.6 WSW 11 19 6 10 1010.8 1010.7 0.0
26/02:30am 26.6 29.1 23.1 81 2.4 WSW 15 26 8 14 1010.5 - 0.0
26/02:00am 26.8 29.0 23.3 81 2.4 SW 17 24 9 13 1010.7 - 0.0
26/01:30am 26.8 29.4 23.3 81 2.4 WSW 15 26 8 14 1011.1 - 0.0
26/01:00am 26.7 30.0 23.8 84 2.0 W 13 17 7 9 1011.2 - 0.0
26/12:39am 26.7 29.3 23.9 84 1.9 W 17 20 9 11 1011.5 - 0.0
26/12:30am 26.7 29.6 23.9 84 1.9 W 15 20 8 11 1011.5 - 0.0
26/12:21am 26.7 30.1 24.1 86 1.8 W 13 20 7 11 1011.6 - 0.0
26/12:00am 26.7 29.8 24.1 86 1.8 W 15 22 8 12 1011.8 1011.7 0.0
 
Date/Time
WST
Temp
°C
App
Temp
°C
Dew
Point
Rel
Hum
%
Delta-T
°C
Wind Press
QNH
hPa
Press
MSL
hPa
Rain
since 9 am
mm
Dir
 
Spd
km/h
Gust
km/h
Spd
kts
Gust
kts
25/11:48pm 26.7 30.1 24.1 86 1.8 W 13 20 7 11 1011.8 - 0.0
25/11:31pm 26.8 29.8 24.0 84 1.9 WNW 15 22 8 12 1012.0 - 0.0
25/11:30pm 26.8 29.4 24.0 84 1.9 WNW 17 24 9 13 1012.0 - 0.0
25/11:18pm 26.8 29.4 23.9 84 2.0 WNW 17 24 9 13 1012.1 - 0.0
25/11:06pm 26.8 29.8 24.0 84 1.9 W 15 20 8 11 1012.3 - 0.0
25/11:05pm 26.8 29.8 24.0 84 1.9 W 15 20 8 11 1012.3 - 0.0
25/11:00pm 26.9 29.8 23.8 83 2.1 W 15 20 8 11 1012.5 - 0.0
25/10:42pm 27.0 29.8 24.3 85 1.9 WNW 17 24 9 13 1012.8 - 0.0
25/10:30pm 27.0 29.6 23.9 83 2.1 WNW 17 24 9 13 1012.9 - 0.0
25/10:00pm 27.1 29.8 24.2 84 2.0 WNW 17 22 9 12 1013.0 - 0.0
25/09:33pm 27.2 29.8 24.0 83 2.2 WNW 17 24 9 13 1013.2 - 0.0
25/09:30pm 27.2 29.8 23.9 82 2.3 WNW 17 24 9 13 1013.2 - 0.0
25/09:13pm 27.3 29.9 24.0 82 2.3 WNW 17 26 9 14 1013.3 - 0.0
25/09:00pm 27.3 29.5 24.0 82 2.3 WNW 19 28 10 15 1013.2 1013.1 0.0
25/08:50pm 27.2 29.6 24.2 84 2.1 NW 19 26 10 14 1013.1 - 0.0
25/08:30pm 27.3 29.7 24.3 84 2.1 NW 19 24 10 13 1013.1 - 0.0
25/08:11pm 27.4 30.3 24.4 84 2.1 NW 17 22 9 12 1013.1 - 0.0
25/08:00pm 27.3 30.1 24.3 84 2.1 WNW 17 26 9 14 1012.8 - 0.0
25/07:30pm 27.2 29.6 24.2 84 2.1 NW 19 30 10 16 1012.6 - 0.0
25/07:00pm 27.3 29.6 24.4 84 2.0 WNW 20 28 11 15 1012.4 - 0.0
25/06:30pm 27.5 29.5 24.0 81 2.4 WNW 20 33 11 18 1012.1 - 0.0
25/06:00pm 27.6 29.7 24.1 81 2.4 NW 20 28 11 15 1012.0 1011.9 0.0
25/05:30pm 28.0 29.6 23.8 78 2.9 NW 22 32 12 17 1011.6 - 0.0
25/05:00pm 28.3 29.5 23.8 76 3.1 NW 24 32 13 17 1011.4 - 0.0
25/04:30pm 29.2 30.8 23.8 72 3.7 WNW 22 32 12 17 1011.5 - 0.0
25/04:00pm 29.6 31.4 23.3 69 4.3 WNW 19 30 10 16 1011.2 - 0.0
25/03:30pm 29.6 30.6 23.5 69 4.2 WNW 24 32 13 17 1011.3 - 0.0
25/03:00pm 29.6 29.7 23.2 68 4.4 WNW 28 35 15 19 1011.4 1011.3 0.0
25/02:30pm 30.1 30.7 23.4 67 4.6 WNW 26 35 14 19 1011.7 - 0.0
25/02:00pm 30.1 31.0 23.3 67 4.7 WNW 24 33 13 18 1012.0 - 0.0
25/01:30pm 30.2 30.2 22.4 63 5.3 WNW 26 35 14 19 1012.2 - 0.0
25/01:00pm 30.6 31.3 22.9 63 5.3 WNW 24 37 13 20 1012.5 - 0.0
25/12:30pm 30.5 31.0 22.7 63 5.3 NW 24 32 13 17 1013.0 - 0.0
25/12:00pm 30.3 30.2 21.4 59 6.0 NW 24 33 13 18 1012.9 1012.8 0.0
25/11:30am 30.4 31.8 22.8 64 5.2 NW 20 30 11 16 1013.5 - 0.0
25/11:00am 31.0 32.0 21.8 58 6.2 NW 19 26 10 14 1014.1 - 0.0
25/10:30am 31.3 33.1 22.5 59 6.0 NW 17 26 9 14 1014.3 - 0.0
25/10:00am 30.1 32.5 22.9 65 4.9 WNW 15 24 8 13 1014.6 - 0.0
25/09:30am 30.3 31.9 21.5 59 5.9 NW 15 22 8 12 1014.8 - 0.0
25/09:00am 30.2 32.6 22.9 65 5.0 NW 15 20 8 11 1014.6 1014.5 0.0
25/08:30am 30.2 33.1 23.1 65 4.9 NW 13 20 7 11 1014.4 - 0.0
25/08:00am 28.5 31.5 23.4 74 3.5 NW 13 20 7 11 1014.6 - 0.0
25/07:30am 28.2 31.1 23.1 74 3.5 NW 13 20 7 11 1014.5 - 0.0
25/07:00am 28.2 31.8 23.7 76 3.1 W 11 19 6 10 1014.3 - 0.0
25/06:30am 27.4 30.5 23.6 80 2.6 W 13 20 7 11 1013.9 - 0.0
25/06:00am 27.0 30.6 23.8 82 2.2 W 11 17 6 9 1013.5 1013.4 0.0
25/05:30am 26.6 29.7 23.5 83 2.1 W 13 19 7 10 1013.1 - 0.0
25/05:00am 26.5 29.7 23.7 84 1.9 WSW 13 17 7 9 1012.6 - 0.0
25/04:30am 26.5 30.1 23.7 84 1.9 W 11 17 6 9 1012.2 - 0.0
25/04:00am 26.5 30.0 23.6 84 2.0 W 11 15 6 8 1011.9 - 0.0
25/03:30am 26.5 30.0 23.6 84 2.0 W 11 15 6 8 1011.7 - 0.0
25/03:00am 26.6 30.1 23.5 83 2.1 W 11 15 6 8 1011.5 1011.4 0.0
25/02:30am 26.1 29.4 23.8 87 1.6 W 13 19 7 10 1011.2 - 0.0
25/02:00am 25.6 30.2 23.8 90 1.2 W 6 9 3 5 1011.6 - 0.0
25/01:30am 25.6 31.3 23.8 90 1.2 CALM 0 0 0 0 1012.2 - 0.0
25/01:00am 26.6 30.9 24.3 87 1.6 S 9 13 5 7 1012.2 - 0.0
25/12:30am 26.8 31.2 24.5 87 1.6 S 9 17 5 9 1012.5 - 0.0
25/12:20am 26.8 30.9 24.5 87 1.6 SSE 11 17 6 9 1013.2 - 0.0
25/12:00am 26.9 31.0 24.6 87 1.6 W 11 15 6 8 1012.4 1012.3 0.0
 
Date/Time
WST
Temp
°C
App
Temp
°C
Dew
Point
Rel
Hum
%
Delta-T
°C
Wind Press
QNH
hPa
Press
MSL
hPa
Rain
since 9 am
mm
Dir
 
Spd
km/h
Gust
km/h
Spd
kts
Gust
kts
24/11:50pm 26.8 31.0 24.8 89 1.4 W 11 17 6 9 1012.4 - 0.0
24/11:30pm 26.8 30.7 24.8 89 1.4 W 13 19 7 10 1012.3 - 0.0
24/11:00pm 26.9 30.3 24.6 87 1.6 WNW 15 22 8 12 1012.3 - 0.0
24/10:30pm 26.9 29.9 24.7 88 1.5 WNW 17 24 9 13 1012.5 - 0.0
24/10:28pm 26.9 29.9 24.7 88 1.5 WNW 17 24 9 13 1012.5 - 0.0
24/10:12pm 26.9 30.1 24.9 89 1.4 NW 17 24 9 13 1012.5 - 0.0
24/10:06pm 26.9 29.9 24.7 88 1.5 NW 17 24 9 13 1012.6 - 0.0
24/10:00pm 26.9 29.9 24.7 88 1.5 NW 17 26 9 14 1012.6 - 0.0
24/09:50pm 26.9 29.9 24.7 88 1.5 NW 17 28 9 15 1012.6 - 0.0
24/09:49pm 27.0 30.0 24.7 87 1.6 NW 17 28 9 15 1012.6 - 0.0
24/09:30pm 27.0 30.1 24.8 88 1.5 NW 17 28 9 15 1012.6 - 0.0
24/09:00pm 27.0 29.5 24.7 87 1.6 NW 20 33 11 18 1012.3 1012.2 0.0
24/08:30pm 27.0 29.5 24.7 87 1.6 NW 20 30 11 16 1012.2 - 0.0
24/08:00pm 27.1 29.6 24.7 87 1.7 NW 20 28 11 15 1012.0 - 0.0
24/07:30pm 27.3 29.6 24.4 84 2.0 NW 20 30 11 16 1011.5 - 0.0
24/07:00pm 27.4 29.8 24.2 83 2.2 NW 19 30 10 16 1011.5 - 0.0
24/06:30pm 27.6 29.3 24.0 81 2.5 NW 22 33 12 18 1011.0 - 0.0
24/06:00pm 27.8 29.3 23.7 78 2.8 NW 22 32 12 17 1010.8 1010.7 0.0
24/05:30pm 28.2 29.4 23.9 77 3.0 NNW 24 35 13 19 1010.7 - 0.0
24/05:00pm 28.9 30.4 23.7 73 3.6 NNW 22 30 12 16 1010.3 - 0.0
24/04:30pm 29.1 29.9 23.1 70 4.1 NW 24 35 13 19 1010.3 - 0.0
24/04:00pm 29.6 30.7 23.7 70 4.1 NNW 24 35 13 19 1010.2 - 0.0
24/03:30pm 30.0 31.1 23.6 68 4.4 NNW 24 35 13 19 1010.4 - 0.0
24/03:00pm 30.0 29.8 22.8 65 4.9 NW 28 41 15 22 1010.6 1010.5 0.0
24/02:30pm 30.7 31.0 23.0 63 5.3 NW 26 35 14 19 1010.7 - 0.0
24/02:00pm 30.7 31.4 23.0 63 5.3 NW 24 37 13 20 1010.9 - 0.0
24/01:30pm 31.3 32.5 23.8 64 5.2 WNW 24 35 13 19 1011.1 - 0.0
24/01:00pm 31.4 31.9 22.6 59 6.0 WNW 24 33 13 18 1011.4 - 0.0
24/12:30pm 32.0 31.6 21.0 52 7.4 WNW 24 32 13 17 1011.6 - 0.0
24/12:00pm 31.8 32.1 20.7 51 7.4 NW 20 28 11 15 1011.9 1011.8 0.0
24/11:30am 31.3 31.6 21.5 56 6.6 WNW 22 32 12 17 1012.0 - 0.0
24/11:00am 31.4 32.3 21.6 56 6.6 NW 19 26 10 14 1012.2 - 0.0
24/10:30am 32.8 31.9 16.9 38 10.1 NW 17 22 9 12 1012.6 - 0.0
24/10:00am 32.0 32.8 20.6 51 7.6 NW 17 22 9 12 1012.9 - 0.0
24/09:30am 30.9 32.3 22.5 61 5.7 NW 19 26 10 14 1013.0 - 0.0
24/09:00am 30.7 32.7 22.3 61 5.7 NW 15 20 8 11 1013.1 1013.0 0.0
24/08:30am 30.4 33.3 21.8 60 5.8 NNW 9 13 5 7 1013.4 - 0.0
24/08:00am 29.4 32.4 22.0 64 5.0 NNW 9 13 5 7 1013.3 - 0.0
24/07:30am 28.4 31.4 22.7 71 3.9 NW 11 15 6 8 1013.1 - 0.0
24/07:00am 27.7 31.9 23.5 78 2.9 W 7 11 4 6 1012.8 - 0.0
24/06:30am 27.2 30.6 23.4 80 2.6 WNW 11 15 6 8 1012.1 - 0.0
24/06:00am 26.7 29.8 23.6 83 2.1 WNW 13 19 7 10 1011.6 1011.5 0.0
24/05:30am 26.4 29.5 23.6 84 1.9 WNW 13 22 7 12 1011.3 - 0.0
24/05:00am 26.3 29.3 23.4 84 2.0 WNW 13 17 7 9 1011.1 - 0.0
24/04:30am 26.2 29.6 23.4 84 1.9 NW 11 17 6 9 1010.9 - 0.0
24/04:04am 26.4 29.4 23.3 83 2.1 WNW 13 17 7 9 1010.7 - 0.0
24/04:00am 26.4 29.3 23.2 82 2.2 W 13 17 7 9 1010.7 - 0.0
24/03:35am 26.5 29.6 23.6 84 2.0 W 13 17 7 9 1010.5 - 0.0
24/03:30am 26.5 29.8 23.9 85 1.8 WNW 13 17 7 9 1010.5 - 0.0
24/03:03am 26.4 29.4 23.3 83 2.1 WNW 13 20 7 11 1010.4 - 0.0
24/03:00am 26.5 29.9 23.4 83 2.1 WNW 11 15 6 8 1010.5 1010.4 0.0
24/02:39am 26.4 30.0 23.8 85 1.8 WNW 11 17 6 9 1010.5 - 0.0
24/02:30am 26.4 29.5 23.6 84 1.9 WNW 13 19 7 10 1010.4 - 0.0
24/02:00am 26.3 29.7 23.4 84 2.0 WNW 11 17 6 9 1010.7 - 0.0
24/01:30am 25.8 29.8 23.8 89 1.4 NW 9 15 5 8 1010.7 - 0.0
24/01:00am 25.1 29.6 23.6 91 1.0 NNW 6 9 3 5 1011.1 - 0.0
24/12:30am 25.3 29.1 23.5 90 1.2 NNW 9 11 5 6 1011.7 - 0.0
24/12:00am 25.4 29.8 23.5 89 1.3 NNE 6 7 3 4 1012.2 1012.1 0.0
 
Date/Time
WST
Temp
°C
App
Temp
°C
Dew
Point
Rel
Hum
%
Delta-T
°C
Wind Press
QNH
hPa
Press
MSL
hPa
Rain
since 9 am
mm
Dir
 
Spd
km/h
Gust
km/h
Spd
kts
Gust
kts
23/11:30pm 25.7 30.0 23.7 89 1.4 NNW 7 9 4 5 1012.3 - 0.0
23/11:00pm 26.1 30.4 23.6 86 1.7 NNW 7 13 4 7 1012.3 - 0.0
23/10:30pm 26.6 30.6 23.7 84 2.0 N 9 11 5 6 1013.0 - 0.0
23/10:00pm 27.3 30.9 23.7 81 2.5 N 11 15 6 8 1013.4 - 0.0
23/09:30pm 27.3 31.3 23.8 81 2.4 NW 9 15 5 8 1013.4 - 0.0
23/09:10pm 27.3 30.6 23.8 81 2.4 NNW 13 19 7 10 1013.1 - 0.0
23/09:00pm 27.3 30.6 23.8 81 2.4 NW 13 17 7 9 1012.8 1012.7 0.0
23/08:30pm 27.3 31.5 24.1 83 2.2 NW 9 19 5 10 1012.5 - 0.0
23/08:29pm 27.3 31.5 24.1 83 2.2 NW 9 17 5 9 1012.5 - 0.0
23/08:00pm 27.3 29.7 23.7 81 2.5 NW 17 26 9 14 1012.0 - 0.0
23/07:30pm 27.3 29.6 24.1 83 2.2 NW 19 30 10 16 1011.8 - 0.0
23/07:00pm 27.4 29.0 23.8 81 2.5 NW 22 32 12 17 1011.3 - 0.0
23/06:30pm 27.4 28.6 23.9 81 2.4 NW 24 32 13 17 1011.0 - 0.0
23/06:00pm 27.5 29.2 24.0 81 2.4 NW 22 37 12 20 1010.6 1010.5 0.0
23/05:30pm 27.7 28.9 23.9 80 2.6 NW 24 35 13 19 1010.2 - 0.0
23/05:00pm 28.2 29.2 24.2 79 2.8 NW 26 39 14 21 1009.8 - 0.0
23/04:30pm 28.7 28.8 23.9 75 3.3 NW 30 41 16 22 1009.4 - 0.0
23/04:00pm 29.1 29.6 23.9 73 3.6 NW 28 41 15 22 1009.4 - 0.0
23/03:30pm 29.9 30.0 24.0 70 4.1 NW 30 39 16 21 1009.8 - 0.0
23/03:00pm 30.0 30.0 23.8 69 4.3 NW 30 39 16 21 1010.0 1009.9 0.0
23/02:30pm 30.3 30.6 23.6 67 4.6 NW 28 41 15 22 1010.1 - 0.0
23/02:00pm 30.6 30.2 23.0 64 5.2 NW 30 41 16 22 1010.4 - 0.0
23/01:30pm 31.4 31.8 23.1 61 5.7 NW 26 39 14 21 1010.6 - 0.0
23/01:00pm 31.4 31.4 23.0 61 5.8 NW 28 39 15 21 1010.9 - 0.0
23/12:30pm 31.4 31.8 22.5 59 6.1 NW 24 35 13 19 1011.0 - 0.0
23/12:00pm 31.3 30.7 22.0 57 6.3 NW 28 41 15 22 1011.4 1011.3 0.0
23/11:30am 31.0 30.8 21.3 56 6.5 NW 24 35 13 19 1011.6 - 0.0
23/11:00am 32.1 31.4 18.7 45 8.7 NW 20 28 11 15 1011.8 - 0.0
23/10:30am 31.8 31.9 20.4 51 7.6 NW 20 26 11 14 1011.7 - 0.0
23/10:00am 31.3 31.1 20.6 53 7.1 NW 22 32 12 17 1011.7 - 0.0
23/09:30am 31.4 30.2 17.6 43 8.8 NW 20 28 11 15 1011.6 - 0.0
23/09:00am 31.5 32.3 21.4 55 6.8 NNW 19 26 10 14 1011.7 1011.6 0.0
23/08:30am 30.1 30.9 22.5 63 5.2 NNW 22 33 12 18 1011.9 - 0.0
23/08:00am 28.5 29.9 22.9 71 3.8 NNW 20 26 11 14 1011.9 - 0.0
23/07:30am 28.0 29.7 23.0 74 3.4 N 19 30 10 16 1011.7 - 0.0
23/07:00am 26.8 29.1 23.4 81 2.3 N 17 24 9 13 1011.7 - 0.0
23/06:30am 25.7 29.1 23.4 87 1.6 N 11 17 6 9 1011.7 - 0.0
23/06:00am 24.3 27.5 23.1 93 0.8 NNE 11 15 6 8 1011.5 1011.4 0.0
23/05:30am 23.5 26.5 22.6 95 0.6 NE 11 17 6 9 1011.4 - 0.0

Other Formats:

Comma delimited format used in spreadsheet applications
http://www.bom.gov.au/fwo/IDW60801/IDW60801.94203.axf

JavaScript Object Notation format (JSON) in row-major order
http://www.bom.gov.au/fwo/IDW60801/IDW60801.94203.json